createdAt,value
2019-02-28T00:00:10.504Z,46.00
2019-02-28T00:02:39.916Z,46.20
2019-02-28T00:05:09.915Z,46.20
2019-02-28T00:07:39.559Z,46.30
2019-02-28T00:10:08.700Z,46.30
2019-02-28T00:12:40.425Z,46.60
2019-02-28T00:15:11.574Z,46.60
2019-02-28T00:17:43.494Z,46.50
2019-02-28T00:20:11.225Z,46.70
2019-02-28T00:22:40.795Z,46.70
2019-02-28T00:25:11.625Z,47.00
2019-02-28T00:27:40.825Z,47.20
2019-02-28T00:30:12.793Z,47.20
2019-02-28T00:32:41.693Z,47.30
2019-02-28T00:35:13.523Z,47.40
2019-02-28T00:37:41.786Z,47.50
2019-02-28T00:40:11.005Z,47.60
2019-02-28T00:42:42.418Z,47.70
2019-02-28T00:45:11.600Z,47.60
2019-02-28T00:47:41.285Z,48.00
2019-02-28T00:50:10.316Z,48.10
2019-02-28T00:52:39.235Z,48.20
2019-02-28T00:55:08.272Z,48.30
2019-02-28T00:57:37.383Z,48.30
2019-02-28T01:00:06.701Z,47.50
2019-02-28T01:02:44.745Z,47.60
2019-02-28T01:05:10.916Z,47.40
2019-02-28T01:07:40.115Z,47.60
2019-02-28T01:10:12.096Z,47.70
2019-02-28T01:12:41.398Z,47.70
2019-02-28T01:15:11.709Z,47.70
2019-02-28T01:17:40.783Z,47.60
2019-02-28T01:20:15.024Z,47.50
2019-02-28T01:22:41.672Z,47.60
2019-02-28T01:25:11.106Z,47.80
2019-02-28T01:27:40.025Z,48.00
2019-02-28T01:30:10.181Z,47.90
2019-02-28T01:32:39.199Z,47.80
2019-02-28T01:35:08.442Z,47.80
2019-02-28T01:37:38.721Z,48.00
2019-02-28T01:40:08.975Z,48.00
2019-02-28T01:42:38.179Z,48.10
2019-02-28T01:45:09.943Z,48.40
2019-02-28T01:47:38.642Z,48.40
2019-02-28T01:50:07.788Z,48.30
2019-02-28T01:52:36.843Z,48.70
2019-02-28T01:55:06.092Z,48.70
2019-02-28T01:57:42.352Z,48.90
2019-02-28T02:00:10.938Z,49.10
2019-02-28T02:02:40.102Z,49.40
2019-02-28T02:05:09.953Z,49.40
2019-02-28T02:07:42.325Z,49.50
2019-02-28T02:10:17.632Z,49.40
2019-02-28T02:12:47.791Z,50.20
2019-02-28T02:15:17.687Z,50.20
2019-02-28T02:17:47.006Z,50.30
2019-02-28T02:20:16.156Z,50.60
2019-02-28T02:22:45.433Z,50.90
2019-02-28T02:25:14.682Z,51.30
2019-02-28T02:27:43.607Z,51.50
2019-02-28T02:30:19.067Z,51.70
2019-02-28T02:32:48.179Z,52.00
2019-02-28T02:35:17.261Z,52.10
2019-02-28T02:37:46.229Z,52.40
2019-02-28T02:40:15.246Z,52.70
2019-02-28T02:42:48.537Z,53.00
2019-02-28T02:45:15.235Z,53.30
2019-02-28T02:47:44.346Z,53.70
2019-02-28T02:50:14.083Z,53.90
2019-02-28T02:52:43.253Z,54.30
2019-02-28T02:55:12.207Z,54.80
2019-02-28T02:57:41.356Z,55.00
2019-02-28T03:00:14.894Z,55.50
2019-02-28T03:02:44.439Z,56.00
2019-02-28T03:05:13.812Z,56.10
2019-02-28T03:07:42.794Z,56.40
2019-02-28T03:10:17.447Z,56.70
2019-02-28T03:12:43.521Z,57.70
2019-02-28T03:15:13.780Z,57.80
2019-02-28T03:17:46.534Z,58.30
2019-02-28T03:20:13.664Z,59.00
2019-02-28T03:22:42.777Z,61.20
2019-02-28T03:25:13.273Z,59.70
2019-02-28T03:27:42.310Z,59.20
2019-02-28T03:30:26.145Z,59.20
2019-02-28T03:32:44.481Z,59.30
2019-02-28T03:35:13.638Z,59.50
2019-02-28T03:37:42.928Z,59.70
2019-02-28T03:40:12.255Z,59.70
2019-02-28T03:42:41.289Z,60.20
2019-02-28T03:45:10.472Z,62.00
2019-02-28T03:47:39.266Z,63.50
2019-02-28T03:50:08.625Z,63.10
2019-02-28T03:52:41.844Z,63.70
2019-02-28T03:55:08.471Z,63.50
2019-02-28T03:57:37.418Z,64.40
2019-02-28T04:00:10.360Z,65.60
2019-02-28T04:02:43.251Z,69.30
2019-02-28T04:05:12.803Z,66.80
2019-02-28T04:07:41.736Z,67.50
2019-02-28T04:10:11.543Z,69.80
2019-02-28T04:12:45.141Z,70.80
2019-02-28T04:15:13.148Z,70.00
2019-02-28T04:17:42.346Z,70.60
2019-02-28T04:20:11.475Z,73.60
2019-02-28T04:22:40.515Z,74.50
2019-02-28T04:25:09.848Z,75.40
2019-02-28T04:27:40.449Z,76.80
2019-02-28T04:30:09.751Z,77.60
2019-02-28T04:32:38.698Z,80.10
2019-02-28T04:35:07.979Z,80.40
2019-02-28T04:37:36.890Z,82.50
2019-02-28T04:40:06.515Z,82.80
2019-02-28T04:42:36.719Z,85.10
2019-02-28T04:45:07.355Z,86.80
2019-02-28T04:47:37.238Z,87.00
2019-02-28T04:50:07.466Z,86.90
2019-02-28T04:52:36.439Z,88.00
2019-02-28T04:55:05.575Z,89.10
2019-02-28T04:57:34.391Z,90.50
2019-02-28T05:00:05.843Z,90.90
2019-02-28T05:02:35.952Z,91.50
2019-02-28T05:05:05.625Z,92.10
2019-02-28T05:07:34.621Z,92.60
2019-02-28T05:10:04.278Z,93.30
2019-02-28T05:12:36.143Z,94.50
2019-02-28T05:15:04.267Z,94.70
2019-02-28T05:17:33.311Z,95.40
2019-02-28T05:20:02.290Z,96.50
2019-02-28T05:22:31.213Z,97.40
2019-02-28T05:25:00.232Z,98.10
2019-02-28T05:27:34.848Z,98.50
2019-02-28T05:29:59.772Z,99.30
2019-02-28T05:32:28.681Z,99.90
2019-02-28T05:34:57.559Z,99.90
2019-02-28T05:37:26.343Z,99.90
2019-02-28T05:39:55.739Z,99.90
2019-02-28T05:42:24.845Z,99.90
2019-02-28T05:44:53.949Z,99.90
2019-02-28T05:47:22.851Z,99.90
2019-02-28T05:49:51.863Z,99.90
2019-02-28T05:52:20.907Z,99.90
2019-02-28T05:54:50.430Z,99.90
2019-02-28T05:57:20.531Z,99.90
2019-02-28T05:59:49.543Z,99.90
2019-02-28T06:02:18.954Z,99.90
2019-02-28T06:04:49.121Z,99.90
2019-02-28T06:07:18.022Z,99.90
2019-02-28T06:09:48.687Z,99.90
2019-02-28T06:12:17.601Z,99.90
2019-02-28T06:14:46.515Z,99.90
2019-02-28T06:17:17.404Z,99.90
2019-02-28T06:19:46.483Z,99.90
2019-02-28T06:22:15.520Z,99.90
2019-02-28T06:24:45.101Z,99.90
2019-02-28T06:27:14.910Z,99.90
2019-02-28T06:29:43.835Z,99.90
2019-02-28T06:32:13.614Z,99.90
2019-02-28T06:34:43.076Z,99.90
2019-02-28T06:37:12.135Z,99.90
2019-02-28T06:39:41.136Z,99.90
2019-02-28T06:42:11.824Z,99.90
2019-02-28T06:44:40.565Z,99.90
2019-02-28T06:47:11.292Z,99.90
2019-02-28T06:49:41.886Z,99.90
2019-02-28T06:52:10.872Z,99.90
2019-02-28T06:54:40.111Z,99.90
2019-02-28T06:57:10.235Z,99.90
2019-02-28T06:59:39.767Z,99.90
2019-02-28T07:02:09.032Z,99.90
2019-02-28T07:04:38.061Z,99.90
2019-02-28T07:07:07.392Z,99.90
2019-02-28T07:09:37.680Z,99.90
2019-02-28T07:12:06.780Z,99.90
2019-02-28T07:14:35.720Z,99.90
2019-02-28T07:17:07.727Z,99.90
2019-02-28T07:19:35.220Z,99.90
2019-02-28T07:22:04.241Z,99.90
2019-02-28T07:24:37.295Z,99.90
2019-02-28T07:27:04.245Z,99.90
2019-02-28T07:29:33.435Z,99.90
2019-02-28T07:32:02.449Z,99.90
2019-02-28T07:34:31.603Z,99.90
2019-02-28T07:37:00.644Z,99.90
2019-02-28T07:39:29.546Z,99.90
2019-02-28T07:42:02.105Z,99.90
2019-02-28T07:44:29.665Z,99.90
2019-02-28T07:46:58.771Z,99.90
2019-02-28T07:49:28.039Z,99.90
2019-02-28T07:51:57.871Z,99.90
2019-02-28T07:54:26.951Z,99.90
2019-02-28T07:56:55.869Z,99.90
2019-02-28T07:59:24.712Z,99.90
2019-02-28T08:01:53.502Z,99.90
2019-02-28T08:04:22.505Z,99.90
2019-02-28T08:06:51.437Z,99.90
2019-02-28T08:09:30.893Z,99.90
2019-02-28T08:12:00.088Z,99.90
2019-02-28T08:14:29.155Z,99.90
2019-02-28T08:16:58.457Z,99.90
2019-02-28T08:19:28.173Z,99.90
2019-02-28T08:21:57.192Z,99.90
2019-02-28T08:24:26.673Z,99.90
2019-02-28T08:26:57.258Z,99.90
2019-02-28T08:29:26.104Z,99.90
2019-02-28T08:31:55.023Z,99.90
2019-02-28T08:34:25.020Z,99.90
2019-02-28T08:36:54.194Z,99.90
2019-02-28T08:39:23.175Z,99.90
2019-02-28T08:41:51.975Z,99.90
2019-02-28T08:44:23.909Z,99.90
2019-02-28T08:46:51.526Z,99.90
2019-02-28T08:49:20.351Z,99.90
2019-02-28T08:51:49.200Z,99.90
2019-02-28T08:54:18.439Z,99.90
2019-02-28T08:56:49.569Z,99.90
2019-02-28T08:59:20.477Z,99.90
2019-02-28T09:01:48.911Z,99.90
2019-02-28T09:04:18.381Z,99.90
2019-02-28T09:06:47.350Z,99.90
2019-02-28T09:09:16.338Z,99.90
2019-02-28T09:11:45.195Z,99.90
2019-02-28T09:14:14.790Z,99.90
2019-02-28T09:16:44.915Z,99.90
2019-02-28T09:19:13.905Z,99.90
2019-02-28T09:21:42.994Z,99.90
2019-02-28T09:24:12.509Z,99.90
2019-02-28T09:26:42.523Z,99.90
2019-02-28T09:29:11.486Z,99.90
2019-02-28T09:31:40.665Z,99.90
2019-02-28T09:34:12.641Z,99.90
2019-02-28T09:36:42.114Z,99.90
2019-02-28T09:39:16.266Z,99.90
2019-02-28T09:41:43.847Z,99.90
2019-02-28T09:44:15.928Z,99.90
2019-02-28T09:46:50.567Z,99.90
2019-02-28T09:49:18.139Z,99.90
2019-02-28T09:51:47.156Z,99.90
2019-02-28T09:54:17.970Z,99.90
2019-02-28T09:56:47.009Z,99.90
2019-02-28T09:59:15.908Z,99.90
2019-02-28T10:01:44.845Z,99.90
2019-02-28T10:04:13.860Z,99.90
2019-02-28T10:06:42.827Z,99.90
2019-02-28T10:09:11.948Z,99.90
2019-02-28T10:11:40.941Z,99.90
2019-02-28T10:14:11.585Z,99.90
2019-02-28T10:16:40.708Z,99.90
2019-02-28T10:19:10.215Z,99.90
2019-02-28T10:21:40.388Z,99.90
2019-02-28T10:24:09.631Z,99.90
2019-02-28T10:26:38.544Z,99.90
2019-02-28T10:29:08.145Z,99.90
2019-02-28T10:31:38.461Z,99.90
2019-02-28T10:34:07.651Z,99.90
2019-02-28T10:36:36.716Z,99.90
2019-02-28T10:39:09.087Z,99.90
2019-02-28T10:41:38.140Z,99.90
2019-02-28T10:44:07.035Z,99.90
2019-02-28T10:46:36.183Z,99.90
2019-02-28T10:49:05.221Z,98.90
2019-02-28T10:51:34.336Z,97.60
2019-02-28T10:54:03.342Z,93.60
2019-02-28T10:56:32.710Z,90.40
2019-02-28T10:59:01.556Z,82.20
2019-02-28T11:01:30.477Z,72.30
2019-02-28T11:04:00.267Z,67.30
2019-02-28T11:06:29.702Z,65.00
2019-02-28T11:08:58.748Z,63.90
2019-02-28T11:11:28.032Z,66.10
2019-02-28T11:13:56.964Z,66.50
2019-02-28T11:16:25.956Z,66.30
2019-02-28T11:18:54.899Z,64.80
2019-02-28T11:21:23.871Z,66.80
2019-02-28T11:23:52.825Z,68.60
2019-02-28T11:26:21.834Z,67.30
2019-02-28T11:28:50.821Z,65.10
2019-02-28T11:31:20.107Z,64.40
2019-02-28T11:33:49.274Z,61.40
2019-02-28T11:36:18.323Z,61.40
2019-02-28T11:38:47.158Z,60.90
2019-02-28T11:41:18.569Z,58.10
2019-02-28T11:43:46.811Z,57.90
2019-02-28T11:46:16.151Z,57.10
2019-02-28T11:48:45.011Z,58.20
2019-02-28T11:51:14.570Z,57.60
2019-02-28T11:53:44.872Z,58.10
2019-02-28T11:56:13.809Z,58.40
2019-02-28T11:58:42.711Z,59.50
2019-02-28T12:01:11.809Z,59.30
2019-02-28T12:03:40.928Z,60.20
2019-02-28T12:06:10.311Z,57.80
2019-02-28T12:08:41.550Z,57.70
2019-02-28T12:11:10.084Z,58.80
2019-02-28T12:13:38.976Z,57.50
2019-02-28T12:16:07.859Z,57.40
2019-02-28T12:18:40.070Z,56.20
2019-02-28T12:21:07.789Z,56.60
2019-02-28T12:23:36.662Z,55.80
2019-02-28T12:26:05.852Z,55.80
2019-02-28T12:28:35.174Z,54.60
2019-02-28T12:31:05.438Z,52.80
2019-02-28T12:33:34.383Z,52.20
2019-02-28T12:36:03.575Z,51.50
2019-02-28T12:38:32.508Z,50.30
2019-02-28T12:41:01.603Z,49.30
2019-02-28T12:43:30.576Z,49.20
2019-02-28T12:46:00.076Z,49.10
2019-02-28T12:48:30.113Z,49.10
2019-02-28T12:50:59.219Z,50.10
2019-02-28T12:53:28.037Z,50.40
2019-02-28T12:55:56.926Z,49.00
2019-02-28T12:58:25.863Z,48.10
2019-02-28T13:00:56.450Z,48.40
2019-02-28T13:03:29.030Z,48.00
2019-02-28T13:05:57.963Z,47.80
2019-02-28T13:08:50.741Z,47.70
2019-02-28T13:11:19.595Z,49.10
2019-02-28T13:13:51.110Z,48.90
2019-02-28T13:16:20.791Z,49.70
2019-02-28T13:25:59.103Z,51.50
2019-02-28T13:28:44.313Z,53.70
2019-02-28T13:31:13.641Z,55.10
2019-02-28T13:33:42.656Z,56.80
2019-02-28T13:36:13.260Z,57.30
2019-02-28T13:38:42.202Z,57.70
2019-02-28T13:41:11.161Z,58.60
2019-02-28T13:43:40.178Z,59.00
2019-02-28T13:46:09.436Z,59.40
2019-02-28T13:48:38.384Z,60.00
2019-02-28T13:51:08.642Z,59.70
2019-02-28T13:53:37.808Z,60.50
2019-02-28T13:56:06.742Z,61.60
2019-02-28T13:58:35.928Z,62.60
2019-02-28T14:01:05.668Z,62.60
2019-02-28T14:03:34.759Z,63.30
2019-02-28T14:06:03.751Z,62.80
2019-02-28T14:08:46.118Z,62.70
2019-02-28T14:11:14.211Z,63.10
2019-02-28T14:13:43.028Z,62.90
2019-02-28T14:16:11.976Z,61.90
2019-02-28T14:18:42.516Z,61.30
2019-02-28T14:21:11.655Z,61.60
2019-02-28T14:23:40.667Z,62.60
2019-02-28T14:26:11.428Z,62.60
2019-02-28T14:28:40.375Z,64.40
2019-02-28T14:31:09.377Z,63.80
2019-02-28T14:33:38.247Z,63.20
2019-02-28T14:36:10.252Z,63.20
2019-02-28T14:38:37.911Z,63.50
2019-02-28T14:41:06.916Z,64.20
2019-02-28T14:43:35.700Z,64.70
2019-02-28T14:46:06.107Z,65.20
2019-02-28T14:48:36.600Z,67.20
2019-02-28T14:51:05.761Z,67.70
2019-02-28T14:53:34.753Z,68.80
2019-02-28T14:56:04.417Z,69.80
2019-02-28T14:58:34.416Z,71.30
2019-02-28T15:01:03.388Z,72.00
2019-02-28T15:03:35.844Z,72.60
2019-02-28T15:06:03.180Z,73.10
2019-02-28T15:08:32.126Z,73.00
2019-02-28T15:11:01.326Z,74.70
2019-02-28T15:13:33.202Z,76.50
2019-02-28T15:16:01.006Z,78.00
2019-02-28T15:18:29.940Z,79.60
2019-02-28T15:20:59.097Z,81.80
2019-02-28T15:23:30.898Z,84.20
2019-02-28T15:25:59.008Z,86.80
2019-02-28T15:28:28.028Z,90.10
2019-02-28T15:30:56.959Z,91.10
2019-02-28T15:33:27.361Z,92.20
2019-02-28T15:35:56.485Z,94.00
2019-02-28T15:38:25.447Z,95.90
2019-02-28T15:40:55.734Z,96.30
2019-02-28T15:43:25.307Z,97.10
2019-02-28T15:45:54.303Z,98.10
2019-02-28T15:48:23.395Z,98.60
2019-02-28T15:50:52.716Z,98.70
2019-02-28T15:53:21.964Z,98.50
2019-02-28T15:55:51.029Z,98.40
2019-02-28T15:58:20.024Z,99.50
2019-02-28T16:00:49.007Z,99.90
2019-02-28T16:03:17.992Z,99.90
2019-02-28T16:05:47.213Z,99.90
2019-02-28T16:08:16.235Z,99.90
2019-02-28T16:10:53.526Z,99.90
2019-02-28T16:13:25.836Z,99.90
2019-02-28T16:15:58.533Z,99.90
2019-02-28T16:18:30.670Z,99.90
2019-02-28T16:20:59.683Z,99.90
2019-02-28T16:23:30.939Z,99.90
2019-02-28T16:25:59.193Z,99.90
2019-02-28T16:28:28.307Z,99.90
2019-02-28T16:30:57.580Z,99.90
2019-02-28T16:33:26.425Z,99.90
2019-02-28T16:35:55.360Z,99.90
2019-02-28T16:38:24.358Z,99.90
2019-02-28T16:40:53.322Z,99.90
2019-02-28T16:43:22.262Z,99.90
2019-02-28T16:45:51.856Z,99.90
2019-02-28T16:48:20.855Z,99.90
2019-02-28T16:50:50.576Z,99.90
2019-02-28T16:53:20.469Z,99.90
2019-02-28T16:55:49.491Z,99.90
2019-02-28T16:58:21.773Z,99.90
2019-02-28T17:00:49.319Z,99.90
2019-02-28T17:03:18.455Z,99.90
2019-02-28T17:05:47.638Z,99.90
2019-02-28T17:08:18.607Z,99.90
2019-02-28T17:10:47.478Z,99.90
2019-02-28T17:13:21.412Z,99.90
2019-02-28T17:16:01.362Z,99.90
2019-02-28T17:18:30.598Z,99.90
2019-02-28T17:20:59.652Z,99.90
2019-02-28T17:23:28.681Z,99.90
2019-02-28T17:25:57.697Z,99.90
2019-02-28T17:29:00.872Z,99.90
2019-02-28T17:31:48.093Z,99.90
2019-02-28T17:34:23.843Z,99.90
2019-02-28T17:36:53.026Z,99.90
2019-02-28T17:39:22.181Z,99.90
2019-02-28T17:41:51.113Z,99.90
2019-02-28T17:45:04.108Z,99.90
2019-02-28T17:48:12.855Z,99.90
2019-02-28T17:51:18.391Z,99.90
2019-02-28T17:54:23.668Z,99.90
2019-02-28T17:57:48.823Z,99.90
2019-02-28T18:00:57.123Z,99.90
2019-02-28T18:03:45.057Z,99.90
2019-02-28T18:07:04.803Z,99.90
2019-02-28T18:09:59.031Z,99.90
2019-02-28T18:12:44.368Z,99.90
2019-02-28T18:15:50.347Z,99.90
2019-02-28T18:18:35.896Z,99.90
2019-02-28T18:21:40.998Z,99.90
2019-02-28T18:24:19.305Z,99.90
2019-02-28T18:27:26.811Z,99.90
2019-02-28T18:30:42.627Z,99.90
2019-02-28T18:33:12.856Z,99.90
2019-02-28T18:35:42.368Z,99.90
2019-02-28T18:38:16.709Z,99.90
2019-02-28T18:40:46.096Z,99.90
2019-02-28T18:43:20.435Z,99.90
2019-02-28T18:45:53.571Z,99.90
2019-02-28T18:48:22.715Z,99.90
2019-02-28T18:50:51.944Z,99.90
2019-02-28T18:53:21.354Z,99.90
2019-02-28T18:55:50.759Z,99.90
2019-02-28T18:58:19.804Z,99.90
2019-02-28T19:00:48.731Z,99.90
2019-02-28T19:03:18.546Z,99.90
2019-02-28T19:05:47.687Z,99.90
2019-02-28T19:08:16.762Z,99.90
2019-02-28T19:10:46.768Z,99.90
2019-02-28T19:13:15.802Z,99.90
2019-02-28T19:15:45.244Z,99.90
2019-02-28T19:18:16.417Z,99.90
2019-02-28T19:20:48.759Z,99.90
2019-02-28T19:23:18.221Z,99.90
2019-02-28T19:25:48.856Z,99.90
2019-02-28T19:28:17.862Z,99.90
2019-02-28T19:30:46.775Z,99.90
2019-02-28T19:33:18.399Z,99.90
2019-02-28T19:35:47.486Z,99.90
2019-02-28T19:38:16.509Z,99.90
2019-02-28T19:40:46.079Z,99.90
2019-02-28T19:43:15.242Z,99.90
2019-02-28T19:45:46.001Z,99.90
2019-02-28T19:48:15.054Z,99.90
2019-02-28T19:50:43.999Z,99.90
2019-02-28T19:53:14.324Z,99.90
2019-02-28T19:55:43.541Z,99.90
2019-02-28T19:58:14.075Z,99.90
2019-02-28T20:00:43.601Z,99.90
2019-02-28T20:03:13.110Z,99.90
2019-02-28T20:05:42.118Z,99.90
2019-02-28T20:08:13.560Z,99.90
2019-02-28T20:10:42.729Z,99.90
2019-02-28T20:13:12.072Z,99.90
2019-02-28T20:15:42.439Z,99.90
2019-02-28T20:18:11.442Z,99.90
2019-02-28T20:20:40.828Z,99.90
2019-02-28T20:23:10.342Z,99.90
2019-02-28T20:25:40.079Z,99.90
2019-02-28T20:28:15.352Z,99.90
2019-02-28T20:30:44.854Z,99.90
2019-02-28T20:33:14.673Z,99.90
2019-02-28T20:36:39.406Z,99.90
2019-02-28T20:38:49.398Z,99.90
2019-02-28T20:41:19.672Z,99.90
2019-02-28T20:43:48.753Z,99.90
2019-02-28T20:46:17.738Z,99.90
2019-02-28T20:48:46.685Z,99.90
2019-02-28T20:51:15.638Z,99.90
2019-02-28T20:53:44.939Z,99.90
2019-02-28T20:56:13.896Z,99.90
2019-02-28T20:58:42.914Z,99.90
2019-02-28T21:01:11.959Z,99.90
2019-02-28T21:03:40.975Z,99.90
2019-02-28T21:06:10.229Z,99.90
2019-02-28T21:08:39.278Z,99.90
2019-02-28T21:11:08.339Z,99.90
2019-02-28T21:13:37.467Z,99.90
2019-02-28T21:16:06.594Z,99.90
2019-02-28T21:18:35.532Z,99.90
2019-02-28T21:21:04.782Z,99.90
2019-02-28T21:23:33.622Z,99.90
2019-02-28T21:26:02.494Z,99.90
2019-02-28T21:28:34.642Z,99.90
2019-02-28T21:31:03.867Z,99.90
2019-02-28T21:33:35.945Z,99.90
2019-02-28T21:36:05.024Z,99.90
2019-02-28T21:38:34.442Z,99.90
2019-02-28T21:41:03.692Z,99.90
2019-02-28T21:43:32.728Z,99.90
2019-02-28T21:46:01.617Z,99.90
2019-02-28T21:48:30.784Z,99.90
2019-02-28T21:51:19.069Z,99.90
2019-02-28T21:53:48.545Z,99.90
2019-02-28T21:56:17.569Z,99.90
2019-02-28T21:59:01.672Z,99.90
2019-02-28T22:01:34.592Z,99.90
2019-02-28T22:04:04.191Z,99.90
2019-02-28T22:06:33.683Z,99.90
2019-02-28T22:09:04.406Z,99.90
2019-02-28T22:11:33.541Z,99.90
2019-02-28T22:14:02.546Z,99.90
2019-02-28T22:16:31.550Z,99.90
2019-02-28T22:19:00.736Z,99.90
2019-02-28T22:21:29.828Z,99.90
2019-02-28T22:23:58.854Z,99.90
2019-02-28T22:26:27.762Z,99.90
2019-02-28T22:28:56.977Z,99.90
2019-02-28T22:31:51.128Z,99.90
2019-02-28T22:34:41.753Z,99.90
2019-02-28T22:37:11.099Z,99.90
2019-02-28T22:39:40.421Z,99.90
2019-02-28T22:42:09.443Z,99.90
2019-02-28T22:44:42.176Z,99.90
2019-02-28T22:47:13.701Z,99.90
2019-02-28T22:49:44.711Z,99.90
2019-02-28T22:52:16.566Z,99.90
2019-02-28T22:54:45.469Z,99.90
2019-02-28T22:57:14.536Z,99.90
2019-02-28T22:59:43.714Z,99.90
2019-02-28T23:02:12.879Z,99.90
2019-02-28T23:04:41.834Z,99.90
2019-02-28T23:07:10.785Z,99.90
2019-02-28T23:09:39.843Z,99.90
2019-02-28T23:12:08.819Z,99.90
2019-02-28T23:14:37.867Z,99.90
2019-02-28T23:17:06.859Z,99.90
2019-02-28T23:19:35.888Z,99.90
2019-02-28T23:22:04.803Z,99.90
2019-02-28T23:24:34.180Z,99.90
2019-02-28T23:27:17.124Z,99.90
2019-02-28T23:30:30.606Z,99.90
2019-02-28T23:33:08.531Z,99.90
2019-02-28T23:35:40.880Z,99.90
2019-02-28T23:38:09.904Z,99.90
2019-02-28T23:40:38.953Z,99.90
2019-02-28T23:43:08.048Z,99.90
2019-02-28T23:45:37.017Z,99.90
2019-02-28T23:48:05.954Z,99.90
2019-02-28T23:50:35.010Z,99.90
2019-02-28T23:53:04.032Z,99.90
2019-02-28T23:55:32.996Z,99.90
2019-02-28T23:58:01.983Z,99.90
